Time;durP1;ratioP1;P1;durP2;ratioP2;P2;SDS_P1;SDS_P2;PMS_P1;PMS_P2;Temp;Humidity;BMP_temperature;BMP_pressure;BME280_temperature;BME280_humidity;BME280_pressure;Samples;Min_cycle;Max_cycle;Signal;HPM_P1;HPM_P2
2022/06/18 00:00:23;;;;;;;5.30;4.22;;;19.90;99.90;;;;;;5074125;28;21005;-63
2022/06/18 00:02:48;;;;;;;4.82;4.25;;;20.00;99.90;;;;;;5070370;28;20119;-63
2022/06/18 00:05:17;;;;;;;4.63;4.10;;;19.90;99.90;;;;;;5077281;28;20128;-64
2022/06/18 00:07:44;;;;;;;6.20;4.88;;;20.00;99.90;;;;;;5076806;28;20041;-64
2022/06/18 00:10:15;;;;;;;6.53;4.45;;;19.90;99.90;;;;;;5069430;28;20560;-63
2022/06/18 00:15:31;;;;;;;4.88;4.32;;;19.80;99.90;;;;;;5078819;28;20044;-63
2022/06/18 00:17:58;;;;;;;5.07;4.53;;;20.00;99.90;;;;;;5075533;28;20087;-62
2022/06/18 00:20:25;;;;;;;7.13;3.95;;;19.80;99.90;;;;;;5076058;28;20044;-63
2022/06/18 00:22:57;;;;;;;5.80;4.38;;;19.90;99.90;;;;;;5078741;28;20047;-61
2022/06/18 00:25:26;;;;;;;5.78;4.85;;;19.80;99.90;;;;;;5072450;28;20044;-63
2022/06/18 00:27:52;;;;;;;7.78;5.25;;;19.80;99.90;;;;;;5073446;28;20036;-63
2022/06/18 00:30:21;;;;;;;6.10;4.55;;;19.80;99.90;;;;;;5073157;28;20164;-63
2022/06/18 00:32:47;;;;;;;7.03;5.10;;;19.80;99.90;;;;;;5071698;28;20131;-63
2022/06/18 00:35:14;;;;;;;6.45;4.70;;;19.70;99.90;;;;;;5081410;28;20410;-63
2022/06/18 00:37:41;;;;;;;13.70;5.22;;;19.80;99.90;;;;;;5077263;28;20520;-63
2022/06/18 00:40:36;;;;;;;4.85;4.45;;;19.80;99.90;;;;;;5077310;28;20101;-63
2022/06/18 00:43:15;;;;;;;7.43;4.90;;;19.90;99.90;;;;;;5065583;28;20044;-63
2022/06/18 00:45:41;;;;;;;5.82;4.85;;;19.80;99.90;;;;;;5072716;28;20118;-63
2022/06/18 00:48:19;;;;;;;5.72;5.22;;;19.80;99.90;;;;;;5077217;28;20046;-63
2022/06/18 00:50:57;;;;;;;7.00;5.00;;;19.80;99.90;;;;;;5072320;28;20056;-63
2022/06/18 00:53:42;;;;;;;8.80;5.40;;;19.70;99.90;;;;;;5075225;28;20055;-63
2022/06/18 00:56:37;;;;;;;7.38;4.88;;;19.70;99.90;;;;;;5030708;28;20041;-63
2022/06/18 00:59:10;;;;;;;5.93;5.25;;;19.70;99.90;;;;;;5027336;28;20053;-63
2022/06/18 01:01:45;;;;;;;8.52;5.50;;;19.70;99.90;;;;;;5031460;28;20128;-63
2022/06/18 01:04:28;;;;;;;9.20;5.85;;;19.60;99.90;;;;;;5032216;28;20049;-62
2022/06/18 01:07:02;;;;;;;6.28;5.68;;;19.60;99.90;;;;;;5030857;28;20054;-63
2022/06/18 01:09:28;;;;;;;6.20;5.32;;;19.50;99.90;;;;;;5034482;28;20045;-63
2022/06/18 01:11:56;;;;;;;6.90;5.35;;;19.50;99.90;;;;;;5030219;28;20049;-62
2022/06/18 01:14:23;;;;;;;10.57;6.28;;;19.50;99.90;;;;;;5030437;28;20573;-63
2022/06/18 01:16:49;;;;;;;8.35;6.25;;;19.40;99.90;;;;;;5036447;28;20053;-62
2022/06/18 01:19:24;;;;;;;8.35;6.57;;;19.50;99.90;;;;;;5031198;28;20595;-62
2022/06/18 01:21:59;;;;;;;7.85;6.28;;;19.50;99.90;;;;;;5031744;28;20081;-63
2022/06/18 01:24:38;;;;;;;10.00;6.03;;;19.50;99.90;;;;;;5033702;28;20049;-63
2022/06/18 01:27:07;;;;;;;8.30;6.45;;;19.40;99.90;;;;;;5034448;28;20033;-63
2022/06/18 01:29:33;;;;;;;13.15;6.93;;;19.30;99.90;;;;;;5034951;28;20049;-63
2022/06/18 01:32:00;;;;;;;8.45;5.88;;;19.30;99.90;;;;;;5031631;28;20057;-63
2022/06/18 01:34:26;;;;;;;13.40;6.75;;;19.30;99.90;;;;;;5034864;28;20045;-63
2022/06/18 01:36:53;;;;;;;8.65;5.30;;;19.30;99.90;;;;;;5029845;28;20451;-63
2022/06/18 01:39:23;;;;;;;7.50;5.65;;;19.30;99.90;;;;;;5034627;28;20047;-63
2022/06/18 01:41:55;;;;;;;8.35;7.00;;;19.30;99.90;;;;;;5032926;28;20045;-63
2022/06/18 01:44:32;;;;;;;7.38;6.47;;;19.30;99.90;;;;;;5034286;28;20045;-63
2022/06/18 01:47:06;;;;;;;7.07;6.15;;;19.30;99.90;;;;;;5035048;28;20568;-61
2022/06/18 01:49:37;;;;;;;7.15;6.00;;;19.30;99.90;;;;;;5040154;28;20881;-63
2022/06/18 01:52:06;;;;;;;8.95;6.60;;;19.40;99.90;;;;;;5038645;28;20492;-62
2022/06/18 01:54:38;;;;;;;8.55;6.45;;;19.40;99.90;;;;;;5050221;28;20048;-63
2022/06/18 01:57:11;;;;;;;10.75;6.65;;;19.40;99.90;;;;;;5071217;28;20044;-64
2022/06/18 01:59:41;;;;;;;8.35;6.60;;;19.40;99.90;;;;;;5074194;28;20044;-64
2022/06/18 02:02:07;;;;;;;10.02;7.22;;;19.40;99.90;;;;;;5074156;28;20066;-62
2022/06/18 02:04:34;;;;;;;8.85;6.65;;;19.40;99.90;;;;;;5075499;28;20044;-64
2022/06/18 02:07:00;;;;;;;10.05;7.32;;;19.40;99.90;;;;;;5076132;28;20123;-63
2022/06/18 02:09:40;;;;;;;9.18;6.82;;;19.30;99.90;;;;;;5077724;28;20440;-64
2022/06/18 02:12:10;;;;;;;8.48;6.90;;;19.30;99.90;;;;;;5076683;28;20136;-64
2022/06/18 02:14:40;;;;;;;8.88;6.70;;;19.30;99.90;;;;;;5073501;28;20041;-64
2022/06/18 02:17:09;;;;;;;10.57;8.00;;;19.30;99.90;;;;;;5075219;28;20320;-65
2022/06/18 02:19:38;;;;;;;8.65;7.72;;;19.20;99.90;;;;;;5077724;28;20087;-63
2022/06/18 02:22:06;;;;;;;8.93;7.55;;;19.30;99.90;;;;;;5076187;28;20726;-65
2022/06/18 02:24:32;;;;;;;9.50;7.35;;;19.20;99.90;;;;;;5070865;28;20052;-64
2022/06/18 02:26:58;;;;;;;9.10;8.20;;;19.10;99.90;;;;;;5074643;28;20036;-64
2022/06/18 02:29:27;;;;;;;10.38;8.07;;;19.10;99.90;;;;;;5077417;28;20037;-64
2022/06/18 02:31:53;;;;;;;8.63;7.82;;;18.90;99.90;;;;;;5073287;28;20494;-64
2022/06/18 02:34:28;;;;;;;11.80;8.50;;;18.80;99.90;;;;;;5074381;28;20110;-64
2022/06/18 02:36:54;;;;;;;9.90;8.95;;;18.80;99.90;;;;;;5068270;28;20051;-64
2022/06/18 02:39:36;;;;;;;9.68;8.45;;;18.70;99.90;;;;;;5075699;28;20052;-64
2022/06/18 02:42:05;;;;;;;;;;;18.70;99.90;;;;;;5072555;28;20059;-64
2022/06/18 02:44:31;;;;;;;12.95;8.07;;;18.60;99.90;;;;;;5071117;28;19964;-64
2022/06/18 02:47:01;;;;;;;16.77;9.13;;;18.50;99.90;;;;;;5072099;28;20056;-64
2022/06/18 02:49:26;;;;;;;9.20;8.35;;;18.50;99.90;;;;;;5074247;28;20040;-64
2022/06/18 02:51:52;;;;;;;11.45;9.10;;;18.40;99.90;;;;;;5073464;28;20126;-64
2022/06/18 02:54:19;;;;;;;15.85;9.60;;;18.40;99.90;;;;;;5074650;28;20091;-64
2022/06/18 02:56:46;;;;;;;14.55;9.30;;;18.40;99.90;;;;;;5076103;28;20579;-65
2022/06/18 02:59:12;;;;;;;11.02;9.02;;;18.30;99.90;;;;;;5076241;28;20413;-64
2022/06/18 03:01:38;;;;;;;12.45;9.73;;;18.40;99.90;;;;;;5076244;28;20111;-64
2022/06/18 03:04:03;;;;;;;10.77;8.80;;;18.40;99.90;;;;;;5073695;28;20040;-64
2022/06/18 03:06:33;;;;;;;16.45;10.65;;;18.30;99.90;;;;;;5071604;28;20040;-65
2022/06/18 03:08:59;;;;;;;12.70;9.55;;;18.20;99.90;;;;;;5075083;28;20445;-64
2022/06/18 03:14:13;;;;;;;12.77;10.55;;;18.10;99.90;;;;;;5068993;28;20053;-64
2022/06/18 03:16:39;;;;;;;12.20;9.80;;;18.10;99.90;;;;;;5075543;28;20036;-65
2022/06/18 03:19:05;;;;;;;13.05;11.55;;;18.10;99.90;;;;;;5074408;28;20119;-64
2022/06/18 03:21:36;;;;;;;15.15;11.40;;;18.10;99.90;;;;;;5079079;28;20044;-64
2022/06/18 03:24:03;;;;;;;13.32;11.07;;;18.10;99.90;;;;;;5077313;28;20036;-65
2022/06/18 03:26:29;;;;;;;15.75;12.57;;;18.00;99.90;;;;;;5076589;28;20432;-64
2022/06/18 03:28:54;;;;;;;18.55;12.52;;;17.50;99.90;;;;;;5078327;28;20044;-64
2022/06/18 03:31:20;;;;;;;17.15;12.13;;;17.90;99.90;;;;;;5080567;28;20044;-65
2022/06/18 03:33:47;;;;;;;19.95;12.73;;;17.90;99.90;;;;;;5078866;28;20079;-63
2022/06/18 03:36:18;;;;;;;17.08;12.70;;;17.80;99.90;;;;;;5079410;28;20120;-64
2022/06/18 03:38:44;;;;;;;25.02;12.93;;;17.80;99.90;;;;;;5084727;28;20077;-65
2022/06/18 03:41:11;;;;;;;17.35;12.57;;;17.60;99.90;;;;;;5077574;28;20125;-64
2022/06/18 03:43:36;;;;;;;18.00;12.88;;;17.60;99.90;;;;;;5078902;28;20842;-64
2022/06/18 03:46:10;;;;;;;17.20;13.38;;;17.60;99.90;;;;;;5074724;28;20080;-65
2022/06/18 03:49:02;;;;;;;21.77;14.35;;;17.60;99.90;;;;;;5078062;28;20047;-65
2022/06/18 03:51:29;;;;;;;19.17;13.57;;;17.60;99.90;;;;;;5076965;28;20044;-65
2022/06/18 03:53:56;;;;;;;16.90;13.40;;;17.60;99.90;;;;;;5075118;28;20056;-64
2022/06/18 03:56:25;;;;;;;19.77;14.63;;;17.60;99.90;;;;;;5077310;28;20056;-64
2022/06/18 03:58:51;;;;;;;22.02;13.60;;;17.50;99.90;;;;;;5076115;28;20067;-63
2022/06/18 04:01:20;;;;;;;22.92;14.90;;;17.50;99.90;;;;;;5076109;28;20039;-65
2022/06/18 04:03:45;;;;;;;23.05;15.63;;;17.50;99.90;;;;;;5076963;28;20491;-63
2022/06/18 04:06:14;;;;;;;17.38;15.30;;;17.50;99.90;;;;;;5076806;28;20173;-65
2022/06/18 04:08:40;;;;;;;18.17;15.10;;;17.50;99.90;;;;;;5075803;28;20123;-64
2022/06/18 04:11:07;;;;;;;23.63;14.82;;;17.40;99.90;;;;;;5075771;28;20056;-64
2022/06/18 04:13:33;;;;;;;17.95;14.52;;;17.40;99.90;;;;;;5079178;28;20130;-64
2022/06/18 04:15:58;;;;;;;20.70;14.73;;;17.40;99.90;;;;;;5077899;28;20131;-64
2022/06/18 04:18:24;;;;;;;22.05;14.88;;;17.60;99.90;;;;;;5076235;28;20098;-64
2022/06/18 04:20:49;;;;;;;20.52;16.42;;;17.30;99.90;;;;;;5079286;28;20518;-64
2022/06/18 04:23:15;;;;;;;23.08;16.45;;;17.40;99.90;;;;;;5074781;28;20036;-64
2022/06/18 04:25:42;;;;;;;20.67;14.38;;;17.40;99.90;;;;;;5073076;28;20105;-64
2022/06/18 04:28:09;;;;;;;20.33;15.25;;;17.40;99.90;;;;;;5083011;28;20548;-64
2022/06/18 04:30:35;;;;;;;22.25;13.98;;;17.40;99.90;;;;;;5074022;28;20076;-64
2022/06/18 04:33:01;;;;;;;19.45;14.95;;;17.40;99.90;;;;;;5079238;28;20079;-64
2022/06/18 04:35:27;;;;;;;23.17;16.58;;;17.50;99.90;;;;;;5077019;28;20051;-63
2022/06/18 04:37:53;;;;;;;25.60;16.77;;;17.50;99.90;;;;;;5074163;28;20040;-64
2022/06/18 04:40:23;;;;;;;19.70;15.15;;;17.40;99.90;;;;;;5077054;28;20094;-64
2022/06/18 04:42:48;;;;;;;25.25;16.00;;;17.50;99.90;;;;;;5063506;28;20051;-64
2022/06/18 04:45:14;;;;;;;20.48;15.68;;;17.50;99.90;;;;;;5078148;28;20135;-64
2022/06/18 04:47:40;;;;;;;22.00;15.93;;;17.50;99.90;;;;;;5077655;28;20042;-65
2022/06/18 04:50:12;;;;;;;21.50;15.18;;;17.50;99.90;;;;;;5073325;28;20403;-65
2022/06/18 04:52:37;;;;;;;25.10;15.02;;;17.50;99.90;;;;;;5078861;28;20043;-64
2022/06/18 04:55:03;;;;;;;26.77;16.35;;;17.50;99.90;;;;;;5079789;28;20059;-65
2022/06/18 04:57:29;;;;;;;17.65;15.38;;;17.50;99.90;;;;;;5072910;28;20044;-64
2022/06/18 04:59:55;;;;;;;20.92;16.05;;;17.50;99.90;;;;;;5076527;28;20044;-64
2022/06/18 05:02:26;;;;;;;28.67;16.95;;;17.60;99.90;;;;;;5080120;28;20040;-65
2022/06/18 05:04:54;;;;;;;22.77;15.63;;;17.60;99.90;;;;;;5073750;28;20048;-64
2022/06/18 05:07:19;;;;;;;27.90;16.42;;;17.70;99.90;;;;;;5080132;28;20044;-64
2022/06/18 05:09:45;;;;;;;22.13;16.20;;;17.60;99.90;;;;;;5077200;28;20101;-64
2022/06/18 05:12:12;;;;;;;22.88;16.85;;;17.60;99.90;;;;;;5074313;28;20039;-65
2022/06/18 05:14:38;;;;;;;23.38;17.10;;;17.70;99.90;;;;;;5075873;28;20040;-64
2022/06/18 05:17:06;;;;;;;24.67;16.42;;;17.70;99.90;;;;;;5080155;28;20496;-65
2022/06/18 05:19:33;;;;;;;23.00;16.13;;;17.70;99.90;;;;;;5074891;28;20040;-64
2022/06/18 05:22:01;;;;;;;23.95;15.90;;;17.90;99.90;;;;;;5075338;28;20051;-64
2022/06/18 05:24:27;;;;;;;23.95;16.30;;;17.80;99.90;;;;;;5079145;28;20498;-65
2022/06/18 05:26:55;;;;;;;27.17;15.32;;;17.80;99.90;;;;;;5075442;28;20041;-64
2022/06/18 05:29:21;;;;;;;25.73;16.45;;;17.90;99.90;;;;;;5078529;28;20137;-64
2022/06/18 05:31:47;;;;;;;19.75;14.82;;;18.00;99.90;;;;;;5075704;28;20403;-65
2022/06/18 05:34:13;;;;;;;22.85;15.13;;;18.00;99.90;;;;;;5073671;28;20039;-64
2022/06/18 05:36:39;;;;;;;23.83;13.82;;;18.10;99.90;;;;;;5073553;28;20108;-65
2022/06/18 05:39:06;;;;;;;22.92;13.65;;;18.10;99.90;;;;;;5077217;28;20039;-64
2022/06/18 05:41:32;;;;;;;24.55;13.18;;;18.20;99.90;;;;;;5071249;28;20040;-64
2022/06/18 05:43:57;;;;;;;23.70;14.63;;;18.30;99.90;;;;;;5075975;28;20082;-63
2022/06/18 05:46:24;;;;;;;19.27;12.65;;;18.30;99.90;;;;;;5076128;28;20112;-64
2022/06/18 05:48:49;;;;;;;18.15;12.02;;;18.40;99.90;;;;;;5076996;28;20052;-64
2022/06/18 05:51:16;;;;;;;16.85;13.35;;;18.40;99.90;;;;;;5075819;28;20085;-64
2022/06/18 05:53:41;;;;;;;19.05;10.82;;;18.50;99.90;;;;;;5076273;28;20298;-64
2022/06/18 05:56:09;;;;;;;16.20;11.65;;;18.50;99.90;;;;;;5077201;28;20044;-65
2022/06/18 05:58:35;;;;;;;17.80;10.75;;;18.60;99.90;;;;;;5077273;28;20081;-64
2022/06/18 06:01:00;;;;;;;13.38;9.23;;;18.60;99.90;;;;;;5077739;28;20354;-65
2022/06/18 06:03:26;;;;;;;12.25;9.43;;;18.70;99.90;;;;;;5072688;28;20036;-64
2022/06/18 06:05:52;;;;;;;17.77;9.70;;;18.60;99.90;;;;;;5075660;28;20536;-64
2022/06/18 06:08:17;;;;;;;16.50;10.40;;;18.70;99.90;;;;;;5075019;28;20040;-63
2022/06/18 06:13:29;;;;;;;15.50;10.05;;;18.80;99.90;;;;;;5075726;28;20435;-63
2022/06/18 06:15:54;;;;;;;16.67;9.50;;;18.90;99.90;;;;;;5072211;28;20101;-63
2022/06/18 06:18:22;;;;;;;19.52;8.73;;;19.00;99.90;;;;;;5073223;28;20033;-65
2022/06/18 06:20:52;;;;;;;15.88;7.80;;;19.00;99.90;;;;;;5075491;28;20487;-64
2022/06/18 06:23:18;;;;;;;16.50;7.70;;;19.00;99.90;;;;;;5073223;28;20531;-64
2022/06/18 06:25:45;;;;;;;9.98;6.63;;;19.10;99.90;;;;;;5074331;28;20043;-63
2022/06/18 06:28:19;;;;;;;14.88;7.70;;;19.10;99.90;;;;;;5075567;28;20036;-64
2022/06/18 06:30:45;;;;;;;10.82;6.43;;;19.10;99.90;;;;;;5069968;28;20491;-64
2022/06/18 06:33:11;;;;;;;14.20;6.50;;;19.20;99.90;;;;;;5073855;28;20703;-65
2022/06/18 06:35:37;;;;;;;14.77;6.80;;;19.20;99.90;;;;;;5070111;28;20051;-64
2022/06/18 06:38:03;;;;;;;24.63;6.95;;;19.20;99.90;;;;;;5078054;28;20040;-65
2022/06/18 06:40:30;;;;;;;10.38;5.75;;;19.20;99.90;;;;;;5078404;28;20051;-64
2022/06/18 06:42:56;;;;;;;15.27;6.38;;;19.20;99.90;;;;;;5075781;28;20624;-64
2022/06/18 06:45:25;;;;;;;15.30;6.35;;;19.20;99.90;;;;;;5071437;28;20051;-65
2022/06/18 06:47:51;;;;;;;15.85;6.47;;;19.30;99.90;;;;;;5072855;28;20177;-64
2022/06/18 06:50:19;;;;;;;13.73;6.40;;;19.30;99.90;;;;;;5068400;28;20211;-64
2022/06/18 06:52:48;;;;;;;10.18;5.75;;;19.30;99.90;;;;;;5071409;28;20110;-64
2022/06/18 06:58:13;;;;;;;13.90;6.38;;;19.30;99.90;;;;;;5075308;28;20558;-68
2022/06/18 07:00:45;;;;;;;10.88;6.18;;;19.30;99.90;;;;;;5073507;28;20147;-67
2022/06/18 07:03:16;;;;;;;13.35;5.30;;;19.30;99.90;;;;;;5069416;28;20036;-63
2022/06/18 07:05:42;;;;;;;11.60;5.70;;;19.30;99.90;;;;;;5071366;28;20048;-70
2022/06/18 07:08:08;;;;;;;9.02;4.60;;;19.40;99.90;;;;;;5076544;28;20133;-65
2022/06/18 07:10:34;;;;;;;10.93;4.90;;;19.60;99.90;;;;;;5085785;28;20036;-64
2022/06/18 07:13:00;;;;;;;18.13;5.32;;;19.40;99.90;;;;;;5070453;28;20055;-64
2022/06/18 07:15:25;;;;;;;8.88;4.65;;;19.50;99.90;;;;;;5085155;28;20040;-64
2022/06/18 07:17:51;;;;;;;12.68;5.45;;;19.40;99.90;;;;;;5078077;28;20044;-64
2022/06/18 07:20:19;;;;;;;10.35;4.88;;;19.50;99.90;;;;;;5071547;28;20194;-72
2022/06/18 07:22:45;;;;;;;12.77;4.40;;;19.70;99.90;;;;;;5086122;28;20066;-64
2022/06/18 07:25:12;;;;;;;9.80;4.72;;;19.60;99.90;;;;;;5065879;28;20197;-65
2022/06/18 07:27:39;;;;;;;14.25;4.60;;;19.60;99.90;;;;;;5071251;28;20051;-65
2022/06/18 07:30:08;;;;;;;8.02;3.17;;;19.80;99.90;;;;;;5085452;28;20044;-64
2022/06/18 07:32:35;;;;;;;11.73;4.72;;;19.70;99.90;;;;;;5084664;28;20141;-64
2022/06/18 07:35:01;;;;;;;6.53;2.97;;;19.80;99.90;;;;;;5084919;28;20093;-65
2022/06/18 07:37:28;;;;;;;7.90;3.38;;;19.90;99.90;;;;;;5065916;28;20458;-64
2022/06/18 07:39:54;;;;;;;4.80;2.53;;;19.90;99.90;;;;;;5064177;28;20076;-64
2022/06/18 07:42:21;;;;;;;6.35;2.63;;;20.00;99.90;;;;;;5064676;28;20487;-64
2022/06/18 07:44:47;;;;;;;5.22;2.90;;;20.00;99.90;;;;;;5064462;28;20051;-64
2022/06/18 07:47:15;;;;;;;4.22;2.30;;;20.10;99.90;;;;;;5064247;28;20040;-64
2022/06/18 07:49:41;;;;;;;6.10;2.35;;;20.10;99.90;;;;;;5064004;28;20048;-65
2022/06/18 07:52:07;;;;;;;4.82;2.53;;;20.20;99.90;;;;;;5065159;28;20041;-64
2022/06/18 07:54:32;;;;;;;3.45;1.65;;;20.20;99.90;;;;;;5063435;28;20095;-64
2022/06/18 07:56:58;;;;;;;2.30;1.30;;;20.20;99.90;;;;;;5065053;28;20045;-64
2022/06/18 07:59:24;;;;;;;3.08;1.50;;;20.20;99.90;;;;;;5065110;28;20113;-65
2022/06/18 08:01:50;;;;;;;1.98;1.65;;;20.20;99.90;;;;;;5065096;28;20124;-65
2022/06/18 08:04:16;;;;;;;2.60;1.60;;;20.10;99.90;;;;;;5069163;28;20131;-64
2022/06/18 08:06:41;;;;;;;4.07;1.23;;;20.20;99.90;;;;;;5068958;28;20115;-64
2022/06/18 08:09:08;;;;;;;3.70;1.48;;;20.20;99.90;;;;;;5066703;28;20048;-64
2022/06/18 08:11:35;;;;;;;4.60;1.75;;;20.30;99.90;;;;;;5068686;28;20040;-64
2022/06/18 08:14:02;;;;;;;4.90;1.67;;;20.30;99.90;;;;;;5068339;28;20048;-63
2022/06/18 08:16:27;;;;;;;4.50;1.80;;;20.20;99.90;;;;;;5068037;28;20040;-65
2022/06/18 08:18:53;;;;;;;3.65;1.83;;;20.30;99.90;;;;;;5068395;28;20062;-64
2022/06/18 08:21:34;;;;;;;5.78;1.60;;;20.20;99.90;;;;;;5068841;28;20091;-64
2022/06/18 08:24:06;;;;;;;3.75;1.42;;;20.30;99.90;;;;;;5066436;28;20059;-65
2022/06/18 08:26:33;;;;;;;3.03;1.80;;;20.30;99.90;;;;;;5068475;28;20052;-64
2022/06/18 08:29:01;;;;;;;3.85;1.40;;;20.30;99.90;;;;;;5068044;28;20123;-64
2022/06/18 08:31:27;;;;;;;3.13;1.30;;;20.20;99.90;;;;;;5067686;28;20482;-65
2022/06/18 08:33:53;;;;;;;2.20;1.05;;;20.40;99.90;;;;;;5068236;28;20123;-64
2022/06/18 08:36:19;;;;;;;2.53;1.40;;;20.40;99.90;;;;;;5067946;28;20052;-65
2022/06/18 08:38:48;;;;;;;2.22;1.25;;;20.50;99.90;;;;;;5066833;28;20051;-64
2022/06/18 08:41:41;;;;;;;4.90;1.70;;;20.50;99.90;;;;;;5067061;28;20047;-64
2022/06/18 08:44:56;;;;;;;2.63;1.70;;;20.50;99.90;;;;;;5067276;28;20499;-65
2022/06/18 08:47:21;;;;;;;2.90;1.70;;;20.50;99.90;;;;;;5046537;28;20395;-63
2022/06/18 08:49:59;;;;;;;2.35;1.33;;;20.50;99.90;;;;;;5066742;28;20215;-64
2022/06/18 08:52:42;;;;;;;3.28;1.20;;;20.50;99.90;;;;;;5067983;28;20136;-64
2022/06/18 08:55:26;;;;;;;4.35;1.30;;;20.50;99.90;;;;;;5067383;28;20059;-64
2022/06/18 08:58:30;;;;;;;2.13;1.50;;;20.50;99.90;;;;;;5066866;28;20075;-64
2022/06/18 09:01:14;;;;;;;3.30;1.25;;;20.60;99.90;;;;;;5067817;28;20549;-64
2022/06/18 09:04:04;;;;;;;3.13;1.48;;;20.60;99.90;;;;;;5067838;28;20050;-64
2022/06/18 09:06:32;;;;;;;2.63;1.35;;;20.70;99.90;;;;;;5067110;28;20127;-64
2022/06/18 09:09:03;;;;;;;1.70;1.05;;;20.70;99.90;;;;;;5067469;28;20080;-64
2022/06/18 09:11:58;;;;;;;3.13;1.17;;;20.70;99.90;;;;;;5067094;28;20059;-64
2022/06/18 09:14:47;;;;;;;2.35;1.00;;;20.70;99.90;;;;;;5067747;28;20044;-64
2022/06/18 09:17:24;;;;;;;3.83;1.25;;;20.80;99.90;;;;;;5067773;28;20301;-64
2022/06/18 09:20:28;;;;;;;3.30;1.10;;;20.80;99.90;;;;;;5066681;28;20048;-65
2022/06/18 09:22:58;;;;;;;5.10;1.42;;;20.90;99.90;;;;;;5042141;28;20056;-65
2022/06/18 09:25:30;;;;;;;3.35;1.05;;;20.90;99.90;;;;;;5066073;28;20212;-65
2022/06/18 09:28:04;;;;;;;2.80;0.80;;;20.90;99.90;;;;;;5067396;28;20044;-64
2022/06/18 09:30:40;;;;;;;2.53;1.02;;;21.00;99.90;;;;;;5067541;28;20457;-65
2022/06/18 09:33:10;;;;;;;3.17;0.90;;;21.00;99.90;;;;;;5066224;28;20044;-64
2022/06/18 09:35:51;;;;;;;2.75;1.02;;;21.10;99.90;;;;;;5067105;28;20414;-64
2022/06/18 09:38:42;;;;;;;3.65;1.60;;;21.10;99.90;;;;;;5067503;28;20128;-65
2022/06/18 09:41:18;;;;;;;3.03;1.17;;;21.20;99.90;;;;;;5066261;28;20143;-64
2022/06/18 09:44:22;;;;;;;2.72;1.38;;;21.10;99.90;;;;;;5067112;28;20044;-65
2022/06/18 09:47:18;;;;;;;3.85;1.30;;;21.10;99.90;;;;;;5066455;28;20393;-64
2022/06/18 09:49:46;;;;;;;3.25;1.25;;;21.10;99.90;;;;;;5066696;28;20046;-65
2022/06/18 09:52:24;;;;;;;3.35;1.17;;;21.10;99.90;;;;;;5066724;28;20053;-64
2022/06/18 09:54:56;;;;;;;6.18;1.20;;;21.20;99.90;;;;;;5065864;28;20113;-64
2022/06/18 09:57:25;;;;;;;3.47;1.45;;;21.20;99.90;;;;;;5066835;28;20102;-64
2022/06/18 10:00:04;;;;;;;1.10;0.70;;;21.20;99.90;;;;;;5066383;28;20442;-65
2022/06/18 10:02:33;;;;;;;5.63;1.40;;;21.20;99.90;;;;;;5065870;28;20119;-64
2022/06/18 10:07:50;;;;;;;2.88;1.00;;;21.30;99.90;;;;;;5064705;28;20427;-64
2022/06/18 10:10:22;;;;;;;2.17;0.98;;;21.30;99.90;;;;;;5065246;28;20036;-64
2022/06/18 10:12:53;;;;;;;3.03;0.88;;;21.30;99.90;;;;;;5066394;28;20055;-64
2022/06/18 10:15:20;;;;;;;2.03;0.90;;;21.30;99.90;;;;;;5066126;28;20514;-64
2022/06/18 10:18:01;;;;;;;2.38;1.10;;;21.40;99.90;;;;;;5066331;28;20102;-64
2022/06/18 10:21:02;;;;;;;2.75;1.10;;;21.40;99.90;;;;;;5065282;28;20052;-63
2022/06/18 10:23:40;;;;;;;1.30;0.90;;;21.50;99.90;;;;;;5065769;28;20238;-64
2022/06/18 10:26:20;;;;;;;5.28;1.00;;;21.50;99.90;;;;;;5065559;28;20797;-65
2022/06/18 10:28:57;;;;;;;2.22;0.75;;;21.50;99.90;;;;;;5065323;28;20590;-63
2022/06/18 10:31:44;;;;;;;3.05;1.15;;;21.50;99.90;;;;;;5066501;28;20101;-65
2022/06/18 10:34:26;;;;;;;1.73;0.73;;;21.60;99.90;;;;;;5066172;28;20056;-64
2022/06/18 10:37:02;;;;;;;1.13;0.60;;;21.70;99.90;;;;;;5065508;28;20048;-63
2022/06/18 10:39:40;;;;;;;1.40;0.70;;;21.80;99.90;;;;;;5066169;28;20052;-64
2022/06/18 10:42:22;;;;;;;1.27;0.80;;;21.90;99.90;;;;;;5065711;28;20460;-64
2022/06/18 10:45:06;;;;;;;1.58;0.60;;;22.20;99.90;;;;;;5075514;28;20119;-65
2022/06/18 10:47:36;;;;;;;2.85;0.85;;;22.00;99.90;;;;;;5077734;28;20048;-64
2022/06/18 10:50:09;;;;;;;3.28;0.90;;;22.00;99.90;;;;;;5069434;28;20603;-66
2022/06/18 10:52:36;;;;;;;1.17;0.60;;;22.00;99.90;;;;;;5079448;28;20413;-65
2022/06/18 10:55:20;;;;;;;0.52;0.50;;;22.10;99.90;;;;;;5073379;28;20056;-65
2022/06/18 10:57:48;;;;;;;1.33;0.73;;;22.10;99.90;;;;;;5076635;28;20040;-64
2022/06/18 11:00:24;;;;;;;2.15;0.57;;;22.20;99.90;;;;;;5075586;28;20122;-65
2022/06/18 11:02:56;;;;;;;4.50;0.95;;;22.20;99.90;;;;;;5073963;28;20044;-64
2022/06/18 11:05:29;;;;;;;2.28;0.70;;;22.20;99.90;;;;;;5074865;28;20052;-64
2022/06/18 11:07:56;;;;;;;1.85;0.30;;;22.20;99.90;;;;;;5077908;28;20044;-65
2022/06/18 11:10:34;;;;;;;1.88;0.60;;;22.20;99.90;;;;;;5079792;28;20496;-63
2022/06/18 11:13:02;;;;;;;1.52;0.52;;;22.30;99.90;;;;;;5072850;28;20055;-65
2022/06/18 11:15:33;;;;;;;1.80;0.70;;;22.30;99.90;;;;;;5075724;28;20091;-64
2022/06/18 11:18:02;;;;;;;1.48;0.77;;;22.40;99.90;;;;;;5079692;28;20048;-64
2022/06/18 11:20:30;;;;;;;2.13;0.82;;;22.50;99.90;;;;;;5076228;28;20057;-64
2022/06/18 11:23:03;;;;;;;4.63;1.10;;;22.50;99.90;;;;;;5071417;28;20040;-64
2022/06/18 11:25:46;;;;;;;3.20;1.00;;;22.60;99.90;;;;;;5074784;28;20044;-65
2022/06/18 11:28:39;;;;;;;3.08;0.98;;;22.60;99.90;;;;;;5073849;28;20474;-65
2022/06/18 11:31:07;;;;;;;3.53;0.95;;;22.60;99.90;;;;;;5065778;28;20060;-64
2022/06/18 11:33:35;;;;;;;1.40;0.90;;;22.60;99.90;;;;;;5074417;28;20501;-64
2022/06/18 11:36:13;;;;;;;6.78;1.60;;;22.60;99.90;;;;;;5075963;28;20067;-64
2022/06/18 11:38:40;;;;;;;1.85;0.82;;;22.60;99.90;;;;;;5081144;28;20051;-63
2022/06/18 11:41:20;;;;;;;3.50;1.35;;;22.60;99.90;;;;;;5073843;28;20044;-64
2022/06/18 11:43:52;;;;;;;4.40;1.50;;;22.60;99.90;;;;;;5078123;28;20117;-65
2022/06/18 11:46:31;;;;;;;2.40;1.13;;;22.60;99.90;;;;;;5078216;28;20135;-64
2022/06/18 11:49:13;;;;;;;5.00;1.30;;;22.50;99.90;;;;;;5078629;28;20097;-64
2022/06/18 11:51:53;;;;;;;4.78;1.17;;;22.50;99.90;;;;;;5062545;28;20091;-64
2022/06/18 11:54:32;;;;;;;3.58;1.08;;;22.50;99.90;;;;;;5081593;28;20079;-64
2022/06/18 11:57:26;;;;;;;3.97;1.25;;;22.50;99.90;;;;;;5079432;28;20047;-64
2022/06/18 12:00:09;;;;;;;7.95;1.48;;;22.50;99.90;;;;;;5082256;28;20049;-65
2022/06/18 12:02:40;;;;;;;2.70;0.82;;;22.50;99.90;;;;;;5077952;28;20051;-65
2022/06/18 12:05:14;;;;;;;2.67;0.80;;;22.50;99.90;;;;;;5075709;28;20117;-64
2022/06/18 12:07:47;;;;;;;3.55;1.05;;;22.50;99.90;;;;;;5076614;28;20055;-64
2022/06/18 12:10:17;;;;;;;8.35;0.95;;;22.60;99.90;;;;;;5082159;28;20062;-65
2022/06/18 12:13:06;;;;;;;2.70;1.38;;;22.70;99.90;;;;;;5079465;28;20052;-65
2022/06/18 12:15:44;;;;;;;8.43;1.48;;;22.60;99.90;;;;;;5079273;28;20044;-64
2022/06/18 12:18:22;;;;;;;4.00;1.20;;;22.60;99.90;;;;;;5076262;28;20041;-64
2022/06/18 12:21:12;;;;;;;3.38;1.05;;;22.60;99.90;;;;;;5075884;28;20101;-64
2022/06/18 12:23:52;;;;;;;5.15;1.42;;;22.60;99.90;;;;;;5084795;28;20510;-65
2022/06/18 12:26:33;;;;;;;7.55;1.55;;;23.30;99.90;;;;;;5077766;28;20039;-64
2022/06/18 12:29:04;;;;;;;7.45;1.35;;;22.50;99.90;;;;;;5081618;28;20044;-65
2022/06/18 12:32:00;;;;;;;6.20;1.80;;;22.50;99.90;;;;;;5080950;28;20086;-65
2022/06/18 12:34:55;;;;;;;4.47;1.33;;;22.60;99.90;;;;;;5074078;28;20049;-65
2022/06/18 12:37:36;;;;;;;5.50;1.58;;;22.60;99.90;;;;;;5070374;28;20090;-65
2022/06/18 12:40:17;;;;;;;5.50;1.40;;;22.60;99.90;;;;;;5075746;28;20506;-65
2022/06/18 12:42:52;;;;;;;7.15;1.77;;;22.60;99.90;;;;;;5072739;28;20495;-65
2022/06/18 12:45:27;;;;;;;6.70;1.83;;;22.50;99.90;;;;;;5071039;28;20045;-65
2022/06/18 12:48:00;;;;;;;9.48;1.75;;;22.30;99.90;;;;;;5077535;28;20071;-64
2022/06/18 12:50:58;;;;;;;8.30;2.00;;;22.50;99.90;;;;;;5074248;28;20176;-65
2022/06/18 12:53:48;;;;;;;6.20;1.58;;;22.50;99.90;;;;;;5075446;28;20127;-64
2022/06/18 12:56:20;;;;;;;11.45;1.73;;;22.10;99.90;;;;;;5075594;28;20139;-64
2022/06/18 12:58:53;;;;;;;;;;;22.50;99.90;;;;;;5078438;28;20044;-64
2022/06/18 13:01:31;;;;;;;7.38;2.08;;;22.50;99.90;;;;;;5077162;28;20394;-65
2022/06/18 13:04:28;;;;;;;12.52;1.98;;;22.50;99.90;;;;;;5077998;28;20124;-64
2022/06/18 13:07:00;;;;;;;6.93;1.75;;;22.50;99.90;;;;;;5077458;28;20048;-65
2022/06/18 13:09:31;;;;;;;8.82;1.70;;;23.80;99.90;;;;;;5082319;28;20032;-65
2022/06/18 13:11:56;;;;;;;5.60;1.60;;;22.60;99.90;;;;;;5074882;28;20141;-64
2022/06/18 13:14:57;;;;;;;6.00;1.30;;;22.50;99.90;;;;;;5073959;28;20109;-64
2022/06/18 13:17:45;;;;;;;10.50;2.55;;;22.50;99.90;;;;;;5072407;28;20178;-63